Time;durP1;ratioP1;P1;durP2;ratioP2;P2;SDS_P1;SDS_P2;PMS_P1;PMS_P2;Temp;Humidity;BMP_temperature;BMP_pressure;BME280_temperature;BME280_humidity;BME280_pressure;Samples;Min_cycle;Max_cycle;Signal;HPM_P1;HPM_P2
2023/12/06 00:01:17;;;;;;;9.60;4.10;;;;;;;4.85;100.00;99051.47;12212588;19;20011;-81
2023/12/06 00:05:20;;;;;;;10.20;3.87;;;;;;;4.88;100.00;99048.28;12208111;19;20023;-81
2023/12/06 00:09:21;;;;;;;11.50;4.40;;;;;;;4.87;100.00;99057.50;12192709;19;20003;-82
2023/12/06 00:13:24;;;;;;;7.30;3.92;;;;;;;4.86;100.00;99055.84;12220052;19;20275;-81
2023/12/06 00:17:26;;;;;;;6.57;3.47;;;;;;;4.89;100.00;99066.31;12223930;19;20015;-82
2023/12/06 00:21:28;;;;;;;5.43;3.00;;;;;;;4.89;100.00;99055.38;12224236;19;20006;-82
2023/12/06 00:25:30;;;;;;;5.82;2.72;;;;;;;4.87;100.00;99068.44;12251597;19;20045;-82
2023/12/06 00:29:32;;;;;;;5.88;2.90;;;;;;;4.92;100.00;99054.91;12228632;19;20014;-80
2023/12/06 00:33:33;;;;;;;5.03;2.55;;;;;;;4.94;100.00;99050.06;12176432;19;20019;-81
2023/12/06 00:37:35;;;;;;;5.03;2.70;;;;;;;4.97;100.00;99059.69;12194917;19;20011;-81
2023/12/06 00:41:37;;;;;;;4.45;2.03;;;;;;;4.97;100.00;99071.44;12197783;19;20006;-81
2023/12/06 00:45:39;;;;;;;4.25;2.25;;;;;;;4.98;100.00;99069.56;12172363;19;20089;-80
2023/12/06 00:49:41;;;;;;;6.30;2.28;;;;;;;4.99;100.00;99071.22;12189954;19;20007;-81
2023/12/06 00:53:43;;;;;;;4.00;2.30;;;;;;;4.98;100.00;99070.38;12192401;19;20018;-81
2023/12/06 00:57:44;;;;;;;6.05;2.90;;;;;;;4.98;100.00;99072.28;12193146;19;20010;-80
2023/12/06 01:01:46;;;;;;;4.60;2.50;;;;;;;4.99;100.00;99068.47;12198269;19;21206;-81
2023/12/06 01:05:48;;;;;;;5.03;2.20;;;;;;;5.01;100.00;99066.34;12184760;19;20023;-81
2023/12/06 01:09:50;;;;;;;6.28;2.90;;;;;;;4.98;100.00;99072.28;12198111;19;20038;-80
2023/12/06 01:13:52;;;;;;;8.73;3.57;;;;;;;4.97;100.00;99067.91;12200671;19;20034;-80
2023/12/06 01:17:54;;;;;;;7.28;3.70;;;;;;;4.93;100.00;99072.13;12177152;19;20007;-81
2023/12/06 01:21:56;;;;;;;9.00;4.22;;;;;;;4.98;100.00;99080.47;12204097;19;20006;-80
2023/12/06 01:25:57;;;;;;;9.82;4.85;;;;;;;5.03;100.00;99084.19;12202621;19;20010;-81
2023/12/06 01:29:59;;;;;;;9.02;4.53;;;;;;;5.10;100.00;99088.72;12179818;19;20010;-80
2023/12/06 01:34:12;;;;;;;11.68;5.00;;;;;;;5.16;100.00;99095.97;12196535;19;20010;-78
2023/12/06 01:38:14;;;;;;;12.63;6.43;;;;;;;5.16;100.00;99099.53;12213467;19;20022;-80
2023/12/06 01:42:16;;;;;;;13.70;6.57;;;;;;;5.19;100.00;99098.25;12192596;19;20006;-80
2023/12/06 01:46:19;;;;;;;12.93;6.85;;;;;;;5.24;100.00;99096.47;12210612;19;20010;-79
2023/12/06 01:50:22;;;;;;;17.90;7.82;;;;;;;5.24;100.00;99096.47;12211465;19;20010;-79
2023/12/06 01:54:26;;;;;;;14.52;7.40;;;;;;;5.25;100.00;99103.59;12188320;19;20493;-79
2023/12/06 01:58:29;;;;;;;14.30;6.90;;;;;;;5.25;100.00;99105.50;12210760;19;20014;-80
2023/12/06 02:02:31;;;;;;;17.00;8.02;;;;;;;5.26;100.00;99107.16;12213324;19;20003;-80
2023/12/06 02:06:33;;;;;;;16.08;7.40;;;;;;;5.28;100.00;99104.22;12190914;19;20108;-82
2023/12/06 02:10:34;;;;;;;14.48;6.68;;;;;;;5.29;100.00;99109.41;12215410;19;19999;-80
2023/12/06 02:14:36;;;;;;;16.55;7.32;;;;;;;5.33;100.00;99110.66;12214301;19;20003;-81
2023/12/06 02:18:39;;;;;;;15.13;7.43;;;;;;;5.32;100.00;99116.31;12195777;19;20062;-81
2023/12/06 02:22:41;;;;;;;14.82;7.18;;;;;;;5.33;100.00;99124.31;12202944;19;20267;-80
2023/12/06 02:26:43;;;;;;;14.63;7.13;;;;;;;5.30;100.00;99123.94;12207649;19;20472;-81
2023/12/06 02:30:45;;;;;;;13.73;7.03;;;;;;;5.31;100.00;99115.50;12187683;19;20046;-80
2023/12/06 02:34:49;;;;;;;13.25;6.72;;;;;;;5.33;100.00;99115.28;12206174;19;20524;-81
2023/12/06 02:38:50;;;;;;;13.60;6.93;;;;;;;5.37;100.00;99120.03;12187334;19;20127;-80
2023/12/06 02:42:53;;;;;;;13.27;7.43;;;;;;;5.38;100.00;99123.59;12210838;19;20006;-81
2023/12/06 02:46:56;;;;;;;15.50;7.55;;;;;;;5.40;100.00;99122.28;12208335;19;20006;-79
2023/12/06 02:50:57;;;;;;;12.85;6.70;;;;;;;5.41;100.00;99107.59;12185740;19;20007;-80
2023/12/06 02:54:59;;;;;;;14.23;7.40;;;;;;;5.41;100.00;99114.94;12207261;19;20056;-79
2023/12/06 02:59:01;;;;;;;16.40;7.63;;;;;;;5.41;100.00;99118.50;12203742;19;20075;-79
2023/12/06 03:03:02;;;;;;;14.63;7.35;;;;;;;5.39;100.00;99120.63;12184300;19;21297;-78
2023/12/06 03:07:04;;;;;;;15.57;7.55;;;;;;;5.39;100.00;99120.63;12207662;19;20007;-79
2023/12/06 03:11:06;;;;;;;14.32;7.65;;;;;;;5.39;100.00;99128.00;12205042;19;20555;-80
2023/12/06 03:15:08;;;;;;;18.42;7.47;;;;;;;5.36;100.00;99132.03;12180597;19;20000;-78
2023/12/06 03:19:10;;;;;;;14.50;7.10;;;;;;;5.37;100.00;99122.75;12197433;19;20022;-79
2023/12/06 03:23:12;;;;;;;16.15;8.27;;;;;;;5.34;100.00;99128.69;12201913;19;20024;-80
2023/12/06 03:27:13;;;;;;;19.33;8.02;;;;;;;5.37;100.00;99124.66;12191935;19;20007;-80
2023/12/06 03:31:15;;;;;;;14.18;7.45;;;;;;;5.39;100.00;99126.09;12212918;19;20020;-80
2023/12/06 03:35:17;;;;;;;15.00;7.78;;;;;;;5.42;100.00;99131.09;12207779;19;20037;-80
2023/12/06 03:39:19;;;;;;;14.23;7.55;;;;;;;5.47;100.00;99127.66;12186523;19;20015;-80
2023/12/06 03:43:21;;;;;;;16.52;7.57;;;;;;;5.48;100.00;99130.16;12213054;19;20423;-79
2023/12/06 03:47:23;;;;;;;17.67;8.02;;;;;;;5.49;100.00;99137.28;12212444;19;20043;-81
2023/12/06 03:51:25;;;;;;;17.48;8.15;;;;;;;5.53;100.00;99143.09;12190053;19;20046;-79
2023/12/06 03:55:27;;;;;;;14.98;7.35;;;;;;;5.57;100.00;99146.22;12210265;19;20032;-80
2023/12/06 03:59:29;;;;;;;15.03;7.50;;;;;;;5.62;100.00;99139.00;12207322;19;20002;-79
2023/12/06 04:03:31;;;;;;;17.27;8.27;;;;;;;5.62;100.00;99143.63;12191018;19;20014;-80
2023/12/06 04:07:32;;;;;;;14.20;7.22;;;;;;;5.62;100.00;99141.75;12218953;19;20022;-80
2023/12/06 04:11:34;;;;;;;15.48;7.75;;;;;;;5.62;100.00;99146.34;12220960;19;20007;-79
2023/12/06 04:15:36;;;;;;;16.35;7.57;;;;;;;5.65;100.00;99140.41;12206736;19;20003;-78
2023/12/06 04:19:38;;;;;;;16.67;7.67;;;;;;;5.68;100.00;99145.41;12220864;19;20003;-80
2023/12/06 04:23:40;;;;;;;15.57;6.00;;;;;;;5.67;100.00;99144.59;12217307;19;20035;-79
2023/12/06 04:27:42;;;;;;;14.63;7.03;;;;;;;5.66;100.00;99147.56;12191420;19;20102;-80
2023/12/06 04:31:44;;;;;;;16.10;7.70;;;;;;;5.67;100.00;99152.78;12217737;19;20003;-80
2023/12/06 04:35:46;;;;;;;16.87;8.13;;;;;;;5.66;100.00;99153.03;12214856;19;20010;-80
2023/12/06 04:39:48;;;;;;;17.05;8.18;;;;;;;5.61;100.00;99150.97;12194688;19;20013;-81
2023/12/06 04:43:50;;;;;;;16.97;8.50;;;;;;;5.62;100.00;99163.59;12217726;19;20031;-81
2023/12/06 04:47:51;;;;;;;16.42;7.60;;;;;;;5.62;100.00;99165.47;12197828;19;20006;-79
2023/12/06 04:51:53;;;;;;;17.30;8.20;;;;;;;5.59;100.00;99165.94;12219946;19;19998;-82
2023/12/06 04:55:55;;;;;;;18.83;8.63;;;;;;;5.63;100.00;99172.63;12224129;19;20011;-79
2023/12/06 04:59:57;;;;;;;16.77;8.10;;;;;;;5.59;100.00;99172.28;12198227;19;20669;-81
2023/12/06 05:03:59;;;;;;;18.35;8.48;;;;;;;5.64;100.00;99175.13;12222684;19;20072;-80
2023/12/06 05:08:01;;;;;;;17.73;7.47;;;;;;;5.66;100.00;99174.91;12222488;19;20096;-81
2023/12/06 05:12:03;;;;;;;16.60;7.95;;;;;;;5.65;100.00;99179.53;12199478;19;20013;-80
2023/12/06 05:16:05;;;;;;;22.17;9.03;;;;;;;5.62;100.00;99181.88;12222372;19;20014;-81
2023/12/06 05:20:10;;;;;;;20.85;8.73;;;;;;;5.58;100.00;99180.69;12224212;19;20082;-81
2023/12/06 05:24:12;;;;;;;18.05;8.18;;;;;;;5.58;100.00;99178.78;12196010;19;20022;-80
2023/12/06 05:28:14;;;;;;;21.17;9.23;;;;;;;5.57;100.00;99185.31;12218769;19;20020;-79
2023/12/06 05:32:16;;;;;;;19.45;8.25;;;;;;;5.56;100.00;99193.75;12219896;19;20003;-81
2023/12/06 05:36:17;;;;;;;18.55;8.32;;;;;;;5.51;100.00;99194.47;12197670;19;20017;-81
2023/12/06 05:40:22;;;;;;;26.38;10.98;;;;;;;5.51;100.00;99199.91;12219446;19;20018;-81
2023/12/06 05:44:24;;;;;;;20.50;9.17;;;;;;;5.45;100.00;99201.69;12223446;19;20014;-80
2023/12/06 05:48:26;;;;;;;16.60;8.48;;;;;;;5.39;100.00;99202.59;12200367;19;20010;-81
2023/12/06 05:52:28;;;;;;;21.37;9.30;;;;;;;5.36;100.00;99208.53;12222335;19;20116;-80
2023/12/06 05:56:30;;;;;;;17.05;8.15;;;;;;;5.36;100.00;99214.00;12226585;19;20006;-82
2023/12/06 06:00:31;;;;;;;23.92;8.57;;;;;;;5.31;100.00;99219.31;12207029;19;20002;-78
2023/12/06 06:04:33;;;;;;;21.83;8.23;;;;;;;5.29;100.00;99223.31;12222944;19;20461;-79
2023/12/06 06:08:35;;;;;;;17.27;8.10;;;;;;;5.27;100.00;99226.31;12223382;19;20015;-80
2023/12/06 06:12:37;;;;;;;19.00;9.45;;;;;;;5.27;100.00;99233.66;12199874;19;20055;-82
2023/12/06 06:16:39;;;;;;;19.43;7.97;;;;;;;5.30;100.00;99238.69;12227166;19;20018;-83
2023/12/06 06:20:41;;;;;;;23.65;9.73;;;;;;;5.35;100.00;99244.25;12224432;19;20007;-82
2023/12/06 06:24:43;;;;;;;20.73;8.90;;;;;;;5.35;100.00;99239.63;12201483;19;20002;-79
2023/12/06 06:28:44;;;;;;;19.77;8.98;;;;;;;5.31;100.00;99246.63;12219938;19;20050;-79
2023/12/06 06:32:46;;;;;;;23.60;9.55;;;;;;;5.31;100.00;99249.34;12216987;19;20015;-81
2023/12/06 06:36:48;;;;;;;33.78;13.13;;;;;;;5.30;100.00;99253.16;12186846;19;20011;-81
2023/12/06 06:40:51;;;;;;;29.63;9.95;;;;;;;5.22;100.00;99258.94;12212294;19;20014;-81
2023/12/06 06:44:55;;;;;;;23.17;10.68;;;;;;;5.21;100.00;99266.28;12193599;19;20003;-82
2023/12/06 06:48:57;;;;;;;23.70;9.45;;;;;;;5.21;100.00;99271.75;12213441;19;20527;-83
2023/12/06 06:53:01;;;;;;;23.05;9.82;;;;;;;5.12;100.00;99272.28;12215928;19;20090;-80
2023/12/06 06:57:03;;;;;;;16.05;7.22;;;;;;;5.04;100.00;99289.81;12193350;19;20018;-83
2023/12/06 07:01:05;;;;;;;16.48;8.30;;;;;;;4.99;100.00;99286.91;12219998;19;20569;-83
2023/12/06 07:05:12;;;;;;;16.92;7.07;;;;;;;4.94;100.00;99284.88;12227132;19;20067;-80
2023/12/06 07:09:14;;;;;;;19.10;8.30;;;;;;;4.91;100.00;99301.72;12215496;19;20013;-81
2023/12/06 07:13:16;;;;;;;21.33;7.50;;;;;;;4.90;100.00;99302.75;12243811;19;20106;-82
2023/12/06 07:17:19;;;;;;;18.63;8.73;;;;;;;4.87;100.00;99310.56;12249663;19;20010;-83
2023/12/06 07:21:21;;;;;;;17.23;7.25;;;;;;;4.78;100.00;99315.47;12232312;19;20623;-82
2023/12/06 07:25:23;;;;;;;12.65;5.95;;;;;;;4.77;100.00;99324.72;12223269;19;20015;-82
2023/12/06 07:29:25;;;;;;;11.53;5.83;;;;;;;4.70;100.00;99337.59;12216938;19;20044;-80
2023/12/06 07:33:27;;;;;;;15.30;6.28;;;;;;;4.61;100.00;99345.25;12209554;19;20272;-82
2023/12/06 07:37:29;;;;;;;14.52;6.60;;;;;;;4.58;100.00;99356.59;12235231;19;20040;-80
2023/12/06 07:41:32;;;;;;;12.35;5.85;;;;;;;4.36;100.00;99372.50;12228128;19;20014;-85
2023/12/06 07:45:33;;;;;;;9.85;6.07;;;;;;;4.27;100.00;99374.63;12200360;19;20070;-80
2023/12/06 07:49:35;;;;;;;10.35;6.03;;;;;;;4.18;100.00;99383.31;12222121;19;20010;-81
2023/12/06 07:53:37;;;;;;;13.05;5.68;;;;;;;4.07;100.00;99379.38;12217295;19;20425;-79
2023/12/06 07:57:39;;;;;;;13.93;5.70;;;;;;;4.10;100.00;99387.13;12195349;19;20015;-80
2023/12/06 08:01:43;;;;;;;14.27;5.75;;;;;;;4.04;100.00;99397.00;12214327;19;20007;-80
2023/12/06 08:05:46;;;;;;;12.88;5.53;;;;;;;4.01;100.00;99402.88;12210444;19;20473;-80
2023/12/06 08:09:49;;;;;;;11.20;5.03;;;;;;;3.88;100.00;99419.31;12193175;19;20006;-84
2023/12/06 08:13:52;;;;;;;11.00;5.68;;;;;;;3.89;100.00;99420.97;12217770;19;20014;-81
2023/12/06 08:17:55;;;;;;;14.15;6.38;;;;;;;3.85;100.00;99419.75;12192161;19;20017;-81
2023/12/06 08:21:57;;;;;;;13.32;6.72;;;;;;;3.90;100.00;99433.56;12210659;19;20010;-80
2023/12/06 08:25:59;;;;;;;15.90;6.18;;;;;;;3.93;100.00;99438.59;12211222;19;20010;-80
2023/12/06 08:30:02;;;;;;;13.95;6.82;;;;;;;3.89;100.00;99438.16;12190155;19;20410;-80
2023/12/06 08:34:04;;;;;;;13.63;7.63;;;;;;;3.88;100.00;99447.41;12214869;19;20007;-79
2023/12/06 08:38:06;;;;;;;12.73;4.93;;;;;;;3.95;100.00;99458.28;12210142;19;20011;-80
2023/12/06 08:42:09;;;;;;;18.02;6.45;;;;;;;3.99;100.00;99461.44;12196436;19;20010;-81
2023/12/06 08:46:11;;;;;;;13.90;7.10;;;;;;;4.03;100.00;99460.78;12210612;19;20011;-80
2023/12/06 08:50:14;;;;;;;14.70;7.43;;;;;;;4.15;100.00;99468.28;12213653;19;20358;-81
2023/12/06 08:54:17;;;;;;;14.15;7.25;;;;;;;4.26;100.00;99462.16;12186304;19;20009;-80
2023/12/06 08:58:18;;;;;;;14.30;7.20;;;;;;;4.34;100.00;99468.19;12209124;19;20080;-80
2023/12/06 09:02:20;;;;;;;12.18;6.80;;;;;;;4.39;100.00;99474.88;12206489;19;20017;-80
2023/12/06 09:06:22;;;;;;;15.63;7.22;;;;;;;4.47;100.00;99477.34;12185003;19;20371;-81
2023/12/06 09:10:25;;;;;;;17.15;7.70;;;;;;;4.53;100.00;99479.22;12207000;19;19998;-80
2023/12/06 09:14:27;;;;;;;17.58;8.23;;;;;;;4.58;100.00;99493.03;12206690;19;20723;-81
2023/12/06 09:18:29;;;;;;;72.10;28.55;;;;;;;4.54;100.00;99489.06;12185947;19;20114;-80
2023/12/06 09:22:31;;;;;;;23.60;12.30;;;;;;;4.55;100.00;99501.63;12204142;19;20006;-80
2023/12/06 09:26:33;;;;;;;13.97;7.43;;;;;;;4.59;100.00;99507.53;12208297;19;20580;-79
2023/12/06 09:30:34;;;;;;;14.32;7.00;;;;;;;4.63;100.00;99508.75;12187173;19;20002;-81
2023/12/06 09:34:36;;;;;;;13.25;7.05;;;;;;;4.65;100.00;99512.94;12205210;19;20346;-79
2023/12/06 09:38:41;;;;;;;12.98;5.93;;;;;;;4.68;100.00;99528.88;12198851;19;21255;-81
2023/12/06 09:42:46;;;;;;;12.95;7.00;;;;;;;4.65;100.00;99533.94;12180093;19;20028;-81
2023/12/06 09:46:50;;;;;;;14.32;6.80;;;;;;;4.61;100.00;99536.28;12199648;19;20014;-80
2023/12/06 09:50:52;;;;;;;11.38;6.13;;;;;;;4.57;100.00;99537.75;12182817;19;20020;-80
2023/12/06 09:54:55;;;;;;;13.27;6.20;;;;;;;4.54;100.00;99541.75;12205545;19;20019;-79
2023/12/06 09:58:57;;;;;;;13.60;6.25;;;;;;;4.57;100.00;99529.56;12204842;19;20027;-80
2023/12/06 10:02:59;;;;;;;11.60;5.22;;;;;;;4.57;100.00;99543.19;12185763;19;20626;-79
2023/12/06 10:07:01;;;;;;;11.40;6.13;;;;;;;4.64;100.00;99544.03;12205345;19;20014;-80
2023/12/06 10:11:05;;;;;;;12.75;7.00;;;;;;;4.72;100.00;99543.75;12205478;19;20007;-79
2023/12/06 10:15:08;;;;;;;13.20;7.00;;;;;;;4.77;100.00;99549.41;12185736;19;20019;-79
2023/12/06 10:19:10;;;;;;;;;;;;;;;4.78;100.00;99550.22;12206174;19;20409;-80
2023/12/06 10:23:12;;;;;;;10.63;5.57;;;;;;;4.84;100.00;99559.44;12208457;19;19914;-81
2023/12/06 10:27:14;;;;;;;12.25;7.13;;;;;;;4.79;100.00;99566.41;12180704;19;20083;-80
2023/12/06 10:31:15;;;;;;;13.50;6.78;;;;;;;4.80;100.00;99562.59;12205938;19;20006;-81
2023/12/06 10:35:18;;;;;;;14.73;7.28;;;;;;;4.85;100.00;99566.56;12202481;19;20334;-80
2023/12/06 10:39:21;;;;;;;13.10;6.78;;;;;;;4.85;100.00;99561.97;12177318;19;20010;-81
2023/12/06 10:43:23;;;;;;;;;;;;;;;4.80;100.00;99557.16;12207450;19;20007;-80
2023/12/06 10:47:27;;;;;;;15.45;7.57;;;;;;;4.84;100.00;99568.47;12228625;19;19920;-80
2023/12/06 10:51:34;;;;;;;13.63;8.32;;;;;;;4.80;100.00;99572.69;12184097;19;20006;-81
2023/12/06 10:55:37;;;;;;;21.83;10.43;;;;;;;4.81;100.00;99574.34;12219943;19;20006;-81
2023/12/06 10:59:42;;;;;;;19.17;9.93;;;;;;;4.84;100.00;99581.28;12228256;19;20014;-82
2023/12/06 11:03:43;;;;;;;19.05;9.43;;;;;;;4.80;100.00;99578.16;12192544;19;20011;-81
2023/12/06 11:08:08;;;;;;;16.73;9.73;;;;;;;4.78;100.00;99581.09;12211727;19;20007;-81
2023/12/06 11:12:32;;;;;;;21.58;10.88;;;;;;;4.84;100.00;99571.19;12186849;19;20019;-82
2023/12/06 11:16:54;;;;;;;16.42;8.57;;;;;;;4.89;100.00;99567.81;12207003;19;20006;-82
2023/12/06 11:20:56;;;;;;;18.30;8.52;;;;;;;4.90;100.00;99569.47;12183491;19;20014;-82
2023/12/06 11:24:59;;;;;;;14.85;7.97;;;;;;;4.92;100.00;99573.69;12202894;19;20013;-81
2023/12/06 11:29:02;;;;;;;16.60;9.27;;;;;;;4.95;100.00;99572.41;12202339;19;20022;-82
2023/12/06 11:33:10;;;;;;;21.00;9.35;;;;;;;4.97;100.00;99571.13;12179260;19;20898;-80
2023/12/06 11:37:17;;;;;;;18.95;9.35;;;;;;;5.01;100.00;99582.44;12200014;19;20011;-82
2023/12/06 11:41:20;;;;;;;19.15;8.80;;;;;;;5.00;100.00;99581.63;12196969;19;20007;-82
2023/12/06 11:45:27;;;;;;;20.48;9.38;;;;;;;4.95;100.00;99583.31;12182302;19;20522;-82
2023/12/06 11:49:29;;;;;;;16.42;8.75;;;;;;;4.88;100.00;99580.63;12214575;19;20517;-81
2023/12/06 11:53:34;;;;;;;19.98;8.73;;;;;;;4.92;100.00;99583.75;12188002;19;20902;-81
2023/12/06 11:58:00;;;;;;;20.10;10.43;;;;;;;4.96;100.00;99585.81;12179670;19;20006;-82
2023/12/06 12:02:02;;;;;;;18.08;8.93;;;;;;;5.00;100.00;99586.25;12201479;19;20422;-82
2023/12/06 12:06:05;;;;;;;18.92;9.95;;;;;;;5.00;100.00;99584.34;12183048;19;20468;-82
2023/12/06 12:10:08;;;;;;;19.17;9.15;;;;;;;4.95;100.00;99578.69;12206150;19;20006;-81
2023/12/06 12:14:09;;;;;;;17.63;9.23;;;;;;;4.93;100.00;99583.53;12207877;19;20023;-81
2023/12/06 12:18:12;;;;;;;16.77;8.35;;;;;;;4.96;100.00;99587.72;12182023;19;20067;-81
2023/12/06 12:22:14;;;;;;;19.75;8.98;;;;;;;4.93;100.00;99585.44;12204134;19;20007;-81
2023/12/06 12:26:17;;;;;;;17.73;8.73;;;;;;;5.01;100.00;99593.38;12196067;19;20021;-81
2023/12/06 12:30:19;;;;;;;18.98;8.57;;;;;;;5.05;100.00;99593.75;12177442;19;20034;-82
2023/12/06 12:34:21;;;;;;;17.50;8.60;;;;;;;5.09;100.00;99595.84;12196795;19;20047;-81
2023/12/06 12:38:23;;;;;;;19.23;9.47;;;;;;;5.17;100.00;99595.56;12205984;19;20007;-81
2023/12/06 12:42:26;;;;;;;17.05;9.30;;;;;;;5.24;100.00;99590.09;12174369;19;20002;-80
2023/12/06 12:46:28;;;;;;;16.95;8.90;;;;;;;5.33;100.00;99594.22;12199652;19;20026;-82
2023/12/06 12:50:32;;;;;;;16.90;9.30;;;;;;;5.38;100.00;99604.47;12213529;19;20028;-81
2023/12/06 12:54:36;;;;;;;18.58;9.15;;;;;;;5.41;100.00;99604.88;12189703;19;20027;-80
2023/12/06 12:58:39;;;;;;;22.08;9.77;;;;;;;5.42;100.00;99612.03;12208403;19;20006;-81
2023/12/06 13:02:41;;;;;;;17.75;9.23;;;;;;;5.37;100.00;99606.38;12207192;19;20034;-81
2023/12/06 13:06:46;;;;;;;16.67;9.15;;;;;;;5.33;100.00;99602.41;12185614;19;20007;-82
2023/12/06 13:10:48;;;;;;;17.75;9.93;;;;;;;5.36;100.00;99612.91;12206849;19;20339;-80
2023/12/06 13:14:51;;;;;;;;;;;;;;;5.32;100.00;99622.59;12183752;19;20027;-82
2023/12/06 13:18:53;;;;;;;15.10;8.50;;;;;;;5.28;100.00;99621.34;12204393;19;19932;-81
2023/12/06 13:22:55;;;;;;;14.73;7.00;;;;;;;5.24;100.00;99617.41;12209519;19;20010;-82
2023/12/06 13:26:57;;;;;;;15.85;7.32;;;;;;;5.20;100.00;99633.38;12186448;19;20385;-82
2023/12/06 13:30:59;;;;;;;13.57;7.50;;;;;;;5.20;100.00;99636.09;12205102;19;20003;-84
2023/12/06 13:35:01;;;;;;;18.10;7.83;;;;;;;5.20;100.00;99624.34;12202685;19;20014;-82
2023/12/06 13:39:06;;;;;;;15.75;8.13;;;;;;;5.29;100.00;99636.69;12182635;19;19998;-83
2023/12/06 13:43:07;;;;;;;;;;;;;;;5.33;100.00;99635.19;12199779;19;20017;-84
2023/12/06 13:47:10;;;;;;;14.38;6.90;;;;;;;5.32;100.00;99633.50;12198886;19;20326;-83
2023/12/06 13:51:12;;;;;;;15.82;7.75;;;;;;;5.25;100.00;99636.28;12182070;19;20010;-84
2023/12/06 13:55:14;;;;;;;11.05;6.85;;;;;;;5.25;100.00;99643.66;12201957;19;20003;-82
2023/12/06 13:59:18;;;;;;;14.03;8.07;;;;;;;5.30;100.00;99651.22;12204171;19;20479;-83
2023/12/06 14:03:20;;;;;;;15.57;7.50;;;;;;;5.34;100.00;99655.16;12185887;19;20426;-82
2023/12/06 14:07:22;;;;;;;17.10;6.93;;;;;;;5.35;100.00;99654.94;12208258;19;20705;-83
2023/12/06 14:11:26;;;;;;;13.20;7.30;;;;;;;5.38;100.00;99653.66;12211227;19;20034;-83
2023/12/06 14:15:28;;;;;;;14.10;7.25;;;;;;;5.36;100.00;99659.34;12196491;19;20014;-83
2023/12/06 14:19:30;;;;;;;14.05;7.22;;;;;;;5.35;100.00;99656.81;12248352;19;20011;-82
2023/12/06 14:23:32;;;;;;;13.02;6.90;;;;;;;5.35;100.00;99663.13;12258386;19;20026;-81
2023/12/06 14:27:41;;;;;;;12.68;6.85;;;;;;;5.37;100.00;99673.84;12247482;19;20011;-81
2023/12/06 14:31:43;;;;;;;15.00;7.43;;;;;;;5.41;100.00;99683.28;12261331;19;20215;-81
2023/12/06 14:35:45;;;;;;;14.55;7.63;;;;;;;5.41;100.00;99680.53;12238672;19;20017;-82
2023/12/06 14:39:46;;;;;;;14.18;7.35;;;;;;;5.41;100.00;99681.41;12178555;19;20010;-82
2023/12/06 14:43:49;;;;;;;14.68;8.43;;;;;;;5.34;100.00;99680.59;12192038;19;20063;-83
2023/12/06 14:47:51;;;;;;;15.63;7.47;;;;;;;5.35;100.00;99682.25;12178144;19;20010;-81
2023/12/06 14:51:53;;;;;;;16.08;8.15;;;;;;;5.39;100.00;99682.69;12197841;19;20235;-82
2023/12/06 14:55:54;;;;;;;14.70;7.60;;;;;;;5.37;100.00;99699.28;12197421;19;20003;-83
2023/12/06 14:59:56;;;;;;;14.85;7.55;;;;;;;5.36;100.00;99699.50;12173384;19;20019;-82
2023/12/06 15:03:58;;;;;;;13.82;7.65;;;;;;;5.37;100.00;99707.47;12198361;19;20774;-83
2023/12/06 15:08:01;;;;;;;13.27;7.25;;;;;;;5.39;100.00;99719.03;12199164;19;20667;-82
2023/12/06 15:12:03;;;;;;;;;;;;;;;5.36;100.00;99727.66;12178424;19;20034;-82
2023/12/06 15:16:04;;;;;;;17.02;8.45;;;;;;;5.36;100.00;99724.94;12198323;19;19919;-84
2023/12/06 15:20:09;;;;;;;16.45;8.73;;;;;;;5.36;100.00;99727.66;12200522;19;20006;-83
2023/12/06 15:24:11;;;;;;;16.25;8.23;;;;;;;5.36;100.00;99735.88;12185683;19;20608;-83
2023/12/06 15:28:13;;;;;;;15.83;7.97;;;;;;;5.36;100.00;99733.13;12215810;19;20011;-84
2023/12/06 15:32:14;;;;;;;14.45;8.00;;;;;;;5.34;100.00;99745.31;12213687;19;20007;-83
2023/12/06 15:36:16;;;;;;;14.65;8.00;;;;;;;5.31;100.00;99751.22;12167958;19;20018;-82
2023/12/06 15:40:19;;;;;;;10.97;6.27;;;;;;;5.24;100.00;99756.72;12206532;19;20010;-83
2023/12/06 15:44:21;;;;;;;17.25;8.95;;;;;;;5.19;100.00;99762.00;12208458;19;20013;-83
2023/12/06 15:48:24;;;;;;;19.40;9.05;;;;;;;5.15;100.00;99758.03;12187108;19;20592;-83
2023/12/06 15:52:25;;;;;;;;;;;;;;;5.02;100.00;99773.38;12209699;19;20014;-82
2023/12/06 15:56:28;;;;;;;21.58;9.10;;;;;;;4.88;100.00;99784.56;12219413;19;19911;-83
2023/12/06 16:00:30;;;;;;;18.50;9.13;;;;;;;4.82;100.00;99797.19;12197598;19;20003;-85
2023/12/06 16:04:32;;;;;;;18.37;9.03;;;;;;;4.79;100.00;99794.88;12215507;19;20007;-82
2023/12/06 16:08:34;;;;;;;15.80;9.13;;;;;;;4.79;100.00;99793.00;12214235;19;20338;-81
2023/12/06 16:12:38;;;;;;;19.40;10.23;;;;;;;4.73;100.00;99795.69;12209325;19;20808;-82
2023/12/06 16:16:40;;;;;;;16.17;9.00;;;;;;;4.64;100.00;99806.03;12229044;19;20007;-82
2023/12/06 16:20:42;;;;;;;20.83;9.53;;;;;;;4.57;100.00;99811.47;12212254;19;20014;-82
2023/12/06 16:24:44;;;;;;;18.73;9.57;;;;;;;4.54;100.00;99825.53;12184560;19;20666;-81
2023/12/06 16:28:46;;;;;;;18.05;8.77;;;;;;;4.52;100.00;99840.44;12206301;19;20020;-82
2023/12/06 16:32:47;;;;;;;22.40;9.27;;;;;;;4.54;100.00;99844.63;12203210;19;20010;-82
2023/12/06 16:36:49;;;;;;;16.42;8.25;;;;;;;4.57;100.00;99854.31;12177075;19;20007;-82
2023/12/06 16:40:51;;;;;;;18.20;9.13;;;;;;;4.59;100.00;99854.94;12204395;19;20048;-82
2023/12/06 16:44:53;;;;;;;18.60;9.30;;;;;;;4.60;100.00;99851.16;12178486;19;20035;-82
2023/12/06 16:48:55;;;;;;;16.92;8.98;;;;;;;4.61;100.00;99852.84;12199580;19;20043;-82
2023/12/06 16:52:57;;;;;;;18.00;9.13;;;;;;;4.61;100.00;99868.38;12209219;19;20010;-82
2023/12/06 16:56:58;;;;;;;15.00;8.00;;;;;;;4.60;100.00;99875.72;12185543;19;20019;-81
2023/12/06 17:01:00;;;;;;;13.70;7.75;;;;;;;4.62;100.00;99889.16;12206452;19;20066;-82
2023/12/06 17:05:02;;;;;;;17.95;8.82;;;;;;;4.61;100.00;99893.78;12203881;19;20497;-82
2023/12/06 17:09:04;;;;;;;22.27;9.90;;;;;;;4.61;100.00;99904.72;12186956;19;20023;-82
2023/12/06 17:13:06;;;;;;;21.10;9.52;;;;;;;4.66;100.00;99909.53;12205942;19;20022;-82
2023/12/06 17:17:07;;;;;;;18.17;8.95;;;;;;;4.62;100.00;99909.09;12206160;19;20013;-81
2023/12/06 17:21:10;;;;;;;14.25;7.85;;;;;;;4.60;100.00;99919.38;12183323;19;20019;-80
2023/12/06 17:25:12;;;;;;;16.30;8.15;;;;;;;4.57;100.00;99923.38;12208825;19;20006;-82
2023/12/06 17:29:14;;;;;;;19.63;7.65;;;;;;;4.60;100.00;99933.03;12207734;19;20002;-84
2023/12/06 17:33:16;;;;;;;18.85;8.45;;;;;;;4.59;100.00;99931.38;12185726;19;20015;-81
2023/12/06 17:37:18;;;;;;;16.27;8.18;;;;;;;4.59;100.00;99934.09;12204217;19;20007;-82
2023/12/06 17:41:21;;;;;;;16.02;7.97;;;;;;;4.59;100.00;99939.53;12207690;19;20338;-82
2023/12/06 17:45:24;;;;;;;17.95;8.27;;;;;;;4.57;100.00;99945.19;12179381;19;19998;-82
2023/12/06 17:49:26;;;;;;;;;;;;;;;4.52;100.00;99945.00;12204445;19;20030;-82
2023/12/06 17:53:27;;;;;;;11.80;6.25;;;;;;;4.50;100.00;99948.97;12208300;19;21666;-81
2023/12/06 17:57:30;;;;;;;16.83;7.18;;;;;;;4.47;100.00;99944.78;12180201;19;20015;-83
2023/12/06 18:01:32;;;;;;;13.18;6.68;;;;;;;4.46;100.00;99951.28;12204808;19;20007;-84
2023/12/06 18:05:34;;;;;;;10.35;6.25;;;;;;;4.45;100.00;99960.50;12200933;19;20027;-84
2023/12/06 18:09:35;;;;;;;11.88;5.55;;;;;;;4.44;100.00;99964.28;12183191;19;20007;-83
2023/12/06 18:13:37;;;;;;;16.67;6.90;;;;;;;4.44;100.00;99967.00;12198210;19;20014;-83
2023/12/06 18:17:39;;;;;;;16.35;7.30;;;;;;;4.43;100.00;99950.84;12220291;19;20024;-83
2023/12/06 18:21:41;;;;;;;12.93;7.18;;;;;;;4.42;100.00;99971.84;12214200;19;20007;-84
2023/12/06 18:25:43;;;;;;;13.95;7.13;;;;;;;4.39;100.00;99968.69;12206823;19;20121;-84
2023/12/06 18:29:44;;;;;;;11.53;6.00;;;;;;;4.41;100.00;99972.88;12209462;19;20533;-84
2023/12/06 18:33:46;;;;;;;11.73;6.07;;;;;;;4.39;100.00;99977.69;12180017;19;20011;-83
2023/12/06 18:37:53;;;;;;;11.90;5.80;;;;;;;4.39;100.00;99980.44;12205041;19;20010;-82